Time;durP1;ratioP1;P1;durP2;ratioP2;P2;SDS_P1;SDS_P2;PMS_P1;PMS_P2;Temp;Humidity;BMP_temperature;BMP_pressure;BME280_temperature;BME280_humidity;BME280_pressure;Samples;Min_cycle;Max_cycle;Signal;HPM_P1;HPM_P2
2023/03/29 00:01:41;;;;;;;4.00;1.83;;;-1.00;99.90;;;;;;4161116;28;21010;-65
2023/03/29 00:03:44;;;;;;;2.03;1.60;;;-1.10;99.90;;;;;;4160013;28;20283;-65
2023/03/29 00:05:45;;;;;;;2.70;1.40;;;-1.10;99.90;;;;;;4144805;28;20283;-64
2023/03/29 00:07:46;;;;;;;2.03;1.60;;;-1.10;99.90;;;;;;4146061;28;20418;-66
2023/03/29 00:09:48;;;;;;;4.27;2.07;;;-1.10;99.90;;;;;;4147169;28;20317;-64
2023/03/29 00:11:49;;;;;;;2.73;1.60;;;-1.10;99.90;;;;;;4145810;28;20259;-65
2023/03/29 00:13:50;;;;;;;3.53;1.50;;;-1.10;99.90;;;;;;4145070;28;20255;-65
2023/03/29 00:15:52;;;;;;;3.27;1.67;;;-1.10;99.90;;;;;;4145047;28;20288;-64
2023/03/29 00:17:53;;;;;;;3.20;1.73;;;-1.20;99.90;;;;;;4145248;28;20263;-66
2023/03/29 00:19:55;;;;;;;2.30;1.60;;;-1.20;99.90;;;;;;4144876;28;20318;-65
2023/03/29 00:21:56;;;;;;;3.93;1.90;;;-1.20;99.90;;;;;;4145013;28;20747;-65
2023/03/29 00:23:57;;;;;;;3.27;1.30;;;-1.20;99.90;;;;;;4150546;28;20278;-65
2023/03/29 00:25:58;;;;;;;2.40;1.43;;;-1.20;99.90;;;;;;4158218;28;20283;-65
2023/03/29 00:28:00;;;;;;;2.87;1.73;;;-1.20;99.90;;;;;;4157716;28;20263;-64
2023/03/29 00:30:03;;;;;;;2.23;1.30;;;-1.20;99.90;;;;;;4159702;28;20332;-65
2023/03/29 00:32:04;;;;;;;2.33;1.60;;;-1.30;99.90;;;;;;4161080;28;20271;-65
2023/03/29 00:34:06;;;;;;;2.53;1.50;;;-1.30;99.90;;;;;;4161222;28;20263;-65
2023/03/29 00:36:09;;;;;;;1.97;1.50;;;-1.30;99.90;;;;;;4161246;28;20321;-64
2023/03/29 00:38:10;;;;;;;2.13;1.40;;;-1.20;99.90;;;;;;4161130;28;20271;-65
2023/03/29 00:40:11;;;;;;;3.57;1.70;;;-1.20;99.90;;;;;;4160539;28;20313;-65
2023/03/29 00:42:14;;;;;;;2.30;1.80;;;-1.30;99.90;;;;;;4160996;28;20352;-65
2023/03/29 00:44:53;;;;;;;2.53;1.77;;;-1.30;99.90;;;;;;4157638;28;20291;-65
2023/03/29 00:46:54;;;;;;;1.90;1.30;;;-1.30;99.90;;;;;;4161021;28;20263;-65
2023/03/29 00:49:04;;;;;;;3.80;1.20;;;-1.30;99.90;;;;;;4159982;28;20333;-65
2023/03/29 00:51:08;;;;;;;2.95;1.60;;;-1.30;99.90;;;;;;4160827;28;20674;-65
2023/03/29 00:53:18;;;;;;;4.13;1.70;;;-1.30;99.90;;;;;;4160350;28;20046;-65
2023/03/29 00:55:22;;;;;;;3.20;1.63;;;-1.30;99.90;;;;;;4160873;28;20340;-66
2023/03/29 00:57:26;;;;;;;2.77;1.87;;;-1.30;99.90;;;;;;4160662;28;20325;-65
2023/03/29 00:59:31;;;;;;;3.73;1.60;;;-1.30;99.90;;;;;;4160553;28;20258;-69
2023/03/29 01:01:40;;;;;;;5.13;1.80;;;-1.30;99.90;;;;;;4160482;28;20312;-69
2023/03/29 01:03:53;;;;;;;3.53;1.60;;;-1.30;99.90;;;;;;4158509;28;20321;-65
2023/03/29 01:06:00;;;;;;;4.07;1.57;;;-1.20;99.90;;;;;;4146906;28;20263;-65
2023/03/29 01:08:17;;;;;;;2.87;1.90;;;-1.30;99.90;;;;;;4144186;28;20275;-66
2023/03/29 01:10:25;;;;;;;3.80;1.77;;;-1.20;99.90;;;;;;4144155;28;20268;-65
2023/03/29 01:12:33;;;;;;;3.00;2.20;;;-1.20;99.90;;;;;;4147698;28;20756;-64
2023/03/29 01:14:43;;;;;;;3.53;2.40;;;-1.20;99.90;;;;;;4139915;28;20279;-64
2023/03/29 01:16:45;;;;;;;3.70;2.20;;;-1.20;99.90;;;;;;4155801;28;20270;-67
2023/03/29 01:18:47;;;;;;;6.20;2.73;;;-1.20;99.90;;;;;;4160461;28;20014;-67
2023/03/29 01:21:09;;;;;;;5.97;2.93;;;-1.20;99.90;;;;;;4160409;28;20374;-65
2023/03/29 01:23:25;;;;;;;4.77;2.87;;;-1.30;99.90;;;;;;4160489;28;20341;-65
2023/03/29 01:25:30;;;;;;;3.43;2.40;;;-1.30;99.90;;;;;;4159710;28;20734;-64
2023/03/29 01:27:48;;;;;;;4.40;2.13;;;-1.30;99.90;;;;;;4144013;28;20313;-66
2023/03/29 01:29:53;;;;;;;5.23;3.23;;;-1.30;99.90;;;;;;4144177;28;20280;-65
2023/03/29 01:32:00;;;;;;;4.87;2.77;;;-1.30;99.90;;;;;;4144001;28;20275;-64
2023/03/29 01:34:13;;;;;;;4.63;2.47;;;-1.30;99.90;;;;;;4143571;28;20267;-65
2023/03/29 01:36:25;;;;;;;4.77;2.90;;;-1.30;99.90;;;;;;4144162;28;20291;-65
2023/03/29 01:38:41;;;;;;;4.50;2.70;;;-1.30;99.90;;;;;;4143677;28;20671;-65
2023/03/29 01:40:42;;;;;;;4.33;2.60;;;-1.30;99.90;;;;;;4146483;28;20808;-64
2023/03/29 01:42:59;;;;;;;2.90;2.03;;;-1.30;99.90;;;;;;4160334;28;20333;-66
2023/03/29 01:45:36;;;;;;;2.10;1.90;;;-1.30;99.90;;;;;;4158029;28;20330;-65
2023/03/29 01:47:46;;;;;;;4.10;2.33;;;-1.30;99.90;;;;;;4119526;28;20279;-66
2023/03/29 01:50:15;;;;;;;3.15;1.65;;;-1.30;99.90;;;;;;4147537;28;20849;-65
2023/03/29 01:52:21;;;;;;;4.47;2.00;;;-1.30;99.90;;;;;;4127252;28;20089;-66
2023/03/29 01:54:40;;;;;;;4.60;2.50;;;-1.30;99.90;;;;;;4127450;28;20260;-65
2023/03/29 01:56:44;;;;;;;2.07;1.90;;;-1.30;99.90;;;;;;4127381;28;20291;-65
2023/03/29 01:58:50;;;;;;;3.33;2.43;;;-1.40;99.90;;;;;;4127432;28;20724;-65
2023/03/29 02:00:55;;;;;;;10.67;2.20;;;-1.30;99.90;;;;;;4127738;28;20632;-65
2023/03/29 02:02:59;;;;;;;5.10;1.70;;;-1.30;99.90;;;;;;4127656;28;20268;-65
2023/03/29 02:05:01;;;;;;;2.63;2.07;;;-1.40;99.90;;;;;;4145427;28;20267;-65
2023/03/29 02:07:06;;;;;;;2.03;1.77;;;-1.30;99.90;;;;;;4141628;28;20272;-66
2023/03/29 02:09:07;;;;;;;3.30;1.70;;;-1.40;99.90;;;;;;4156165;28;20305;-64
2023/03/29 02:11:09;;;;;;;5.60;2.30;;;-1.40;99.90;;;;;;4159279;28;20356;-66
2023/03/29 02:13:10;;;;;;;3.00;2.07;;;-1.40;99.90;;;;;;4145208;28;20833;-67
2023/03/29 02:15:15;;;;;;;3.63;1.90;;;-1.40;99.90;;;;;;4148960;28;20767;-66
2023/03/29 02:17:20;;;;;;;2.93;2.17;;;-1.40;99.90;;;;;;4156508;28;20772;-65
2023/03/29 02:19:24;;;;;;;3.53;1.90;;;-1.40;99.90;;;;;;4152404;28;20274;-65
2023/03/29 02:21:32;;;;;;;3.37;2.00;;;-1.40;99.90;;;;;;4159440;28;20279;-65
2023/03/29 02:23:44;;;;;;;3.40;2.07;;;-1.50;99.90;;;;;;4149216;28;20755;-67
2023/03/29 02:25:46;;;;;;;4.13;2.23;;;-1.50;99.90;;;;;;4149273;28;20279;-65
2023/03/29 02:27:48;;;;;;;4.03;2.20;;;-1.50;99.90;;;;;;4143588;28;20317;-65
2023/03/29 02:29:49;;;;;;;4.10;2.40;;;-1.60;99.90;;;;;;4143528;28;20259;-64
2023/03/29 02:32:09;;;;;;;3.20;2.27;;;-1.60;99.90;;;;;;4143491;28;20322;-65
2023/03/29 02:34:20;;;;;;;3.97;2.10;;;-1.60;99.90;;;;;;4143401;28;20283;-65
2023/03/29 02:36:27;;;;;;;2.60;2.30;;;-1.60;99.90;;;;;;4159700;28;20360;-64
2023/03/29 02:38:30;;;;;;;4.00;2.07;;;-1.60;99.90;;;;;;4159694;28;20259;-66
2023/03/29 02:40:33;;;;;;;2.23;1.67;;;-1.60;99.90;;;;;;4159852;28;20731;-67
2023/03/29 02:42:35;;;;;;;4.33;1.70;;;-1.60;99.90;;;;;;4159245;28;20282;-65
2023/03/29 02:44:40;;;;;;;4.13;2.53;;;-1.70;99.90;;;;;;4156944;28;20318;-65
2023/03/29 02:46:42;;;;;;;4.23;2.00;;;-1.70;99.90;;;;;;4159691;28;20275;-63
2023/03/29 02:48:47;;;;;;;2.63;1.87;;;-1.70;99.90;;;;;;4158737;28;20279;-64
2023/03/29 02:50:52;;;;;;;2.57;1.80;;;-1.70;99.90;;;;;;4159052;28;20687;-64
2023/03/29 02:52:58;;;;;;;2.30;1.93;;;-1.70;99.90;;;;;;4159753;28;20604;-65
2023/03/29 02:55:01;;;;;;;2.03;1.70;;;-1.70;99.90;;;;;;4159342;28;20282;-66
2023/03/29 02:57:07;;;;;;;2.40;1.83;;;-1.80;99.90;;;;;;4159340;28;20258;-67
2023/03/29 02:59:08;;;;;;;3.83;1.80;;;-1.80;99.90;;;;;;4159291;28;20275;-64
2023/03/29 03:01:10;;;;;;;3.23;1.60;;;-1.80;99.90;;;;;;4159492;28;20608;-65
2023/03/29 03:03:14;;;;;;;6.87;1.60;;;-1.80;99.90;;;;;;4157509;28;20260;-65
2023/03/29 03:05:16;;;;;;;2.30;1.53;;;-1.80;99.90;;;;;;4146939;28;20283;-63
2023/03/29 03:07:18;;;;;;;2.83;1.40;;;-1.70;99.90;;;;;;4145520;28;20391;-63
2023/03/29 03:09:19;;;;;;;3.30;1.90;;;-1.80;99.90;;;;;;4145805;28;20260;-64
2023/03/29 03:11:22;;;;;;;2.93;1.90;;;-1.80;99.90;;;;;;4145896;28;20264;-64
2023/03/29 03:13:23;;;;;;;3.27;1.70;;;-1.80;99.90;;;;;;4145925;28;20290;-63
2023/03/29 03:15:25;;;;;;;2.80;1.97;;;-1.80;99.90;;;;;;4160646;28;20294;-63
2023/03/29 03:17:26;;;;;;;2.33;1.90;;;-1.80;99.90;;;;;;4160045;28;20324;-65
2023/03/29 03:19:27;;;;;;;2.67;1.90;;;-1.80;99.90;;;;;;4158896;28;20278;-64
2023/03/29 03:21:28;;;;;;;3.50;2.00;;;-1.80;99.90;;;;;;4160355;28;20287;-64
2023/03/29 03:23:30;;;;;;;5.00;2.40;;;-1.80;99.90;;;;;;4151398;28;20341;-66
2023/03/29 03:25:34;;;;;;;6.10;1.90;;;-1.70;99.90;;;;;;4145634;28;20271;-64
2023/03/29 03:27:36;;;;;;;4.43;2.30;;;-1.80;99.90;;;;;;4145871;28;20275;-65
2023/03/29 03:29:37;;;;;;;3.13;1.97;;;-1.80;99.90;;;;;;4156130;28;20631;-66
2023/03/29 03:31:40;;;;;;;4.70;2.27;;;-1.80;99.90;;;;;;4162127;28;20301;-65
2023/03/29 03:33:41;;;;;;;3.53;2.27;;;-1.80;99.90;;;;;;4161715;28;20275;-64
2023/03/29 03:35:45;;;;;;;2.33;1.50;;;-1.80;99.90;;;;;;4162315;28;20344;-65
2023/03/29 03:37:47;;;;;;;4.70;2.33;;;-1.80;99.90;;;;;;4161703;28;20271;-67
2023/03/29 03:39:48;;;;;;;5.63;2.40;;;-1.80;99.90;;;;;;4162079;28;20336;-65
2023/03/29 03:41:49;;;;;;;3.27;1.93;;;-1.80;99.90;;;;;;4160006;28;20270;-65
2023/03/29 03:43:51;;;;;;;4.10;1.90;;;-1.80;99.90;;;;;;4161974;28;20317;-64
2023/03/29 03:45:52;;;;;;;7.27;2.00;;;-1.80;99.90;;;;;;4152715;28;20330;-64
2023/03/29 03:47:53;;;;;;;4.03;2.43;;;-1.80;99.90;;;;;;4158090;28;20684;-65
2023/03/29 03:49:55;;;;;;;4.33;2.27;;;-1.80;99.90;;;;;;4155470;28;20356;-66
2023/03/29 03:51:56;;;;;;;4.63;1.97;;;-1.80;99.90;;;;;;4149212;28;20699;-65
2023/03/29 03:53:57;;;;;;;4.70;2.47;;;-1.80;99.90;;;;;;4158369;28;20758;-65
2023/03/29 03:56:00;;;;;;;3.83;2.27;;;-1.80;99.90;;;;;;4158245;28;20287;-65
2023/03/29 03:58:02;;;;;;;5.87;2.73;;;-1.80;99.90;;;;;;4154168;28;20291;-65
2023/03/29 04:00:17;;;;;;;3.37;2.07;;;-1.80;99.90;;;;;;4145170;28;20306;-66
2023/03/29 04:02:20;;;;;;;6.73;2.20;;;-1.90;99.90;;;;;;4146911;28;20275;-67
2023/03/29 04:04:22;;;;;;;3.33;2.17;;;-1.90;99.90;;;;;;4147226;28;20345;-66
2023/03/29 04:06:24;;;;;;;3.27;1.80;;;-1.90;99.90;;;;;;4161483;28;20270;-65
2023/03/29 04:08:26;;;;;;;3.50;2.07;;;-1.90;99.90;;;;;;4160861;28;20340;-64
2023/03/29 04:10:27;;;;;;;4.60;2.93;;;-1.90;99.90;;;;;;4161286;28;20267;-64
2023/03/29 04:12:28;;;;;;;6.33;2.90;;;-1.90;99.90;;;;;;4160029;28;20267;-65
2023/03/29 04:14:30;;;;;;;5.20;2.57;;;-1.90;99.90;;;;;;4159745;28;20279;-65
2023/03/29 04:16:31;;;;;;;4.40;2.80;;;-1.90;99.90;;;;;;4152500;28;20330;-65
2023/03/29 04:18:32;;;;;;;4.17;2.60;;;-1.90;99.90;;;;;;4140743;28;20283;-66
2023/03/29 04:20:34;;;;;;;3.43;2.30;;;-1.90;99.90;;;;;;4155950;28;20275;-64
2023/03/29 04:22:35;;;;;;;2.87;2.10;;;-2.00;99.90;;;;;;4161290;28;20312;-65
2023/03/29 04:24:36;;;;;;;2.53;1.80;;;-2.00;99.90;;;;;;4159704;28;20781;-63
2023/03/29 04:26:37;;;;;;;5.80;2.63;;;-2.00;99.90;;;;;;4160552;28;20266;-64
2023/03/29 04:28:40;;;;;;;9.77;2.33;;;-2.10;99.90;;;;;;4160554;28;20247;-64
2023/03/29 04:30:41;;;;;;;9.20;2.77;;;-2.10;99.90;;;;;;4161135;28;20340;-64
2023/03/29 04:32:42;;;;;;;5.07;2.53;;;-2.10;99.90;;;;;;4146645;28;20834;-64
2023/03/29 04:34:43;;;;;;;5.00;2.93;;;-2.10;99.90;;;;;;4146313;28;20295;-72
2023/03/29 04:36:44;;;;;;;6.23;2.47;;;-1.90;99.90;;;;;;4146043;28;20307;-64
2023/03/29 04:38:46;;;;;;;4.73;2.40;;;-1.50;99.90;;;;;;4143173;28;20284;-63
2023/03/29 04:40:49;;;;;;;3.20;2.40;;;-1.10;99.90;;;;;;4144194;28;20305;-70
2023/03/29 04:42:50;;;;;;;3.70;2.30;;;-0.80;99.90;;;;;;4147225;28;20695;-65
2023/03/29 04:44:52;;;;;;;3.53;2.10;;;-0.50;99.90;;;;;;4153618;28;20287;-65
2023/03/29 04:46:53;;;;;;;4.17;2.40;;;-0.30;99.90;;;;;;4144353;28;20271;-65
2023/03/29 04:48:54;;;;;;;4.03;2.30;;;0.00;99.90;;;;;;4144668;28;20325;-65
2023/03/29 04:50:55;;;;;;;4.60;2.20;;;0.30;99.90;;;;;;4147972;28;20279;-65
2023/03/29 04:52:59;;;;;;;4.23;2.10;;;0.40;99.90;;;;;;4143974;28;20283;-65
2023/03/29 04:55:00;;;;;;;5.63;2.57;;;0.50;99.90;;;;;;4144417;28;20390;-64
2023/03/29 04:57:04;;;;;;;5.53;2.67;;;0.60;99.90;;;;;;4149231;28;20290;-63
2023/03/29 04:59:05;;;;;;;5.00;2.43;;;0.70;99.90;;;;;;4159018;28;20295;-74
2023/03/29 05:01:06;;;;;;;4.17;2.60;;;1.00;99.90;;;;;;4157155;28;20283;-72
2023/03/29 05:03:10;;;;;;;7.63;2.63;;;1.20;99.90;;;;;;4147586;28;20304;-64
2023/03/29 05:05:12;;;;;;;4.33;2.10;;;1.40;99.90;;;;;;4144409;28;20279;-63
2023/03/29 05:07:14;;;;;;;5.97;3.10;;;1.70;99.90;;;;;;4146239;28;20283;-67
2023/03/29 05:09:16;;;;;;;4.73;2.57;;;1.90;99.90;;;;;;4157386;28;20287;-63
2023/03/29 05:11:18;;;;;;;4.97;2.30;;;2.00;99.90;;;;;;4160262;28;20321;-62
2023/03/29 05:13:19;;;;;;;4.03;2.70;;;2.00;99.90;;;;;;4160096;28;20301;-63
2023/03/29 05:15:21;;;;;;;8.13;2.63;;;2.10;99.90;;;;;;4160132;28;20266;-70
2023/03/29 05:17:22;;;;;;;5.43;2.10;;;2.20;99.90;;;;;;4159717;28;20340;-65
2023/03/29 05:19:24;;;;;;;3.73;2.43;;;2.20;99.90;;;;;;4160159;28;20263;-63
2023/03/29 05:21:27;;;;;;;4.70;2.60;;;2.30;99.90;;;;;;4159245;28;20682;-63
2023/03/29 05:23:28;;;;;;;4.73;2.53;;;2.40;99.90;;;;;;4158335;28;20309;-68
2023/03/29 05:25:29;;;;;;;6.43;3.80;;;2.40;99.90;;;;;;4159678;28;20313;-64
2023/03/29 05:27:30;;;;;;;6.70;3.47;;;2.30;99.40;;;;;;4159456;28;20266;-64
2023/03/29 05:29:31;;;;;;;10.87;4.23;;;2.40;99.90;;;;;;4160160;28;20301;-62
2023/03/29 05:31:32;;;;;;;4.63;3.40;;;2.20;99.20;;;;;;4160259;28;20328;-63
2023/03/29 05:33:34;;;;;;;6.50;3.03;;;2.10;99.00;;;;;;4159955;28;20267;-67
2023/03/29 05:35:36;;;;;;;4.47;2.57;;;1.90;99.40;;;;;;4159640;28;20781;-63
2023/03/29 05:37:37;;;;;;;4.03;2.87;;;1.90;99.50;;;;;;4160134;28;20747;-63
2023/03/29 05:39:39;;;;;;;5.83;2.57;;;2.10;99.90;;;;;;4159253;28;20324;-63
2023/03/29 05:41:40;;;;;;;5.33;2.50;;;2.10;99.50;;;;;;4158393;28;20313;-63
2023/03/29 05:43:41;;;;;;;4.40;2.93;;;2.10;98.80;;;;;;4159899;28;20289;-63
2023/03/29 05:45:42;;;;;;;3.93;2.60;;;2.40;99.70;;;;;;4159946;28;20325;-72
2023/03/29 05:47:44;;;;;;;4.17;2.83;;;2.60;99.10;;;;;;4159661;28;20618;-66
2023/03/29 05:49:45;;;;;;;6.37;3.33;;;2.60;99.10;;;;;;4158445;28;20263;-65
2023/03/29 05:51:46;;;;;;;7.07;2.77;;;2.70;99.10;;;;;;4159617;28;20697;-64
2023/03/29 05:53:47;;;;;;;5.57;3.03;;;3.00;98.70;;;;;;4159936;28;20329;-63
2023/03/29 05:55:48;;;;;;;3.33;2.30;;;3.00;98.30;;;;;;4159473;28;20393;-66
2023/03/29 05:57:50;;;;;;;9.67;3.43;;;2.90;98.30;;;;;;4159918;28;20266;-65
2023/03/29 05:59:52;;;;;;;4.17;3.00;;;3.00;98.30;;;;;;4159177;28;20274;-62
2023/03/29 06:01:53;;;;;;;5.60;3.07;;;3.20;97.80;;;;;;4159167;28;20278;-63
2023/03/29 06:03:56;;;;;;;5.23;3.10;;;3.10;98.00;;;;;;4159691;28;20321;-63
2023/03/29 06:06:02;;;;;;;3.13;2.40;;;3.10;97.50;;;;;;4160156;28;20255;-64
2023/03/29 06:08:04;;;;;;;3.23;2.20;;;2.40;97.30;;;;;;4157719;28;20344;-65
2023/03/29 06:10:08;;;;;;;4.37;2.80;;;1.80;98.00;;;;;;4159697;28;20680;-71
2023/03/29 06:12:09;;;;;;;6.43;3.33;;;1.40;98.70;;;;;;4159664;28;20678;-63
2023/03/29 06:14:12;;;;;;;5.23;2.70;;;1.50;99.20;;;;;;4159720;28;20321;-63
2023/03/29 06:16:13;;;;;;;8.03;3.80;;;1.60;99.10;;;;;;4159669;28;20298;-62
2023/03/29 06:18:14;;;;;;;5.17;2.80;;;1.80;98.80;;;;;;4159619;28;20266;-64
2023/03/29 06:20:16;;;;;;;3.80;2.37;;;1.50;98.60;;;;;;4159604;28;20259;-64
2023/03/29 06:22:17;;;;;;;6.90;2.77;;;1.70;98.70;;;;;;4159317;28;20309;-64
2023/03/29 06:24:19;;;;;;;5.90;2.50;;;2.00;98.20;;;;;;4159633;28;20263;-64
2023/03/29 06:26:21;;;;;;;2.93;2.07;;;2.10;97.90;;;;;;4159364;28;20866;-63
2023/03/29 06:28:23;;;;;;;3.73;2.47;;;1.80;97.50;;;;;;4159415;28;20271;-63
2023/03/29 06:30:24;;;;;;;7.17;2.67;;;1.70;97.60;;;;;;4158782;28;20287;-62
2023/03/29 06:32:27;;;;;;;2.80;2.17;;;1.50;97.60;;;;;;4158922;28;20786;-73
2023/03/29 06:34:28;;;;;;;4.60;2.30;;;1.20;97.70;;;;;;4159029;28;20305;-62
2023/03/29 06:36:30;;;;;;;5.37;2.27;;;1.00;98.00;;;;;;4159198;28;20294;-63
2023/03/29 06:38:32;;;;;;;4.73;2.67;;;0.70;98.20;;;;;;4160206;28;20266;-64
2023/03/29 06:40:35;;;;;;;6.93;3.37;;;0.90;98.60;;;;;;4162781;28;20271;-63
2023/03/29 06:42:36;;;;;;;6.70;3.93;;;1.00;98.40;;;;;;4162682;28;20278;-63
2023/03/29 06:44:37;;;;;;;18.67;8.30;;;1.00;98.20;;;;;;4162687;28;20758;-62
2023/03/29 06:46:38;;;;;;;13.53;6.03;;;1.00;98.50;;;;;;4161365;28;20333;-62
2023/03/29 06:48:40;;;;;;;15.20;7.13;;;0.90;98.30;;;;;;4160577;28;20647;-63
2023/03/29 06:50:41;;;;;;;18.90;8.57;;;1.00;98.40;;;;;;4161735;28;20309;-63
2023/03/29 06:52:43;;;;;;;7.90;4.17;;;0.80;98.10;;;;;;4161865;28;20800;-64
2023/03/29 06:54:45;;;;;;;10.40;4.83;;;0.70;98.20;;;;;;4162352;28;20258;-62
2023/03/29 06:56:46;;;;;;;3.67;2.80;;;0.60;97.90;;;;;;4161689;28;20298;-63
2023/03/29 06:58:47;;;;;;;3.83;2.30;;;0.70;97.80;;;;;;4161958;28;20312;-68
2023/03/29 07:00:49;;;;;;;13.03;7.73;;;0.80;97.90;;;;;;4162165;28;20321;-64
2023/03/29 07:02:51;;;;;;;14.00;6.97;;;0.80;97.60;;;;;;4161873;28;20332;-63
2023/03/29 07:04:53;;;;;;;9.43;4.80;;;0.80;97.60;;;;;;4162162;28;20258;-62
2023/03/29 07:07:04;;;;;;;6.27;3.50;;;0.70;97.40;;;;;;4162627;28;20756;-63
2023/03/29 07:09:05;;;;;;;5.83;2.70;;;0.50;97.10;;;;;;4161848;28;20263;-63
2023/03/29 07:11:07;;;;;;;5.93;2.60;;;0.60;97.30;;;;;;4162174;28;20673;-62
2023/03/29 07:13:12;;;;;;;4.87;3.63;;;0.50;97.20;;;;;;4161744;28;20263;-64
2023/03/29 07:15:14;;;;;;;4.20;2.93;;;0.60;97.40;;;;;;4162299;28;20304;-64
2023/03/29 07:17:15;;;;;;;13.47;3.80;;;0.50;96.20;;;;;;4162177;28;20283;-71
2023/03/29 07:19:18;;;;;;;8.07;4.00;;;0.40;96.60;;;;;;4162211;28;20321;-74
2023/03/29 07:21:19;;;;;;;9.10;4.50;;;0.40;96.80;;;;;;4161243;28;20667;-64
2023/03/29 07:23:20;;;;;;;11.40;5.37;;;0.30;96.70;;;;;;4161615;28;20267;-63
2023/03/29 07:25:23;;;;;;;9.03;4.00;;;0.30;96.90;;;;;;4162092;28;20313;-64
2023/03/29 07:27:24;;;;;;;10.77;6.10;;;0.40;97.10;;;;;;4160128;28;20348;-63
2023/03/29 07:29:27;;;;;;;4.13;2.87;;;0.40;97.10;;;;;;4161940;28;20320;-62
2023/03/29 07:31:28;;;;;;;2.87;2.13;;;0.60;97.20;;;;;;4161512;28;20279;-63
2023/03/29 07:33:29;;;;;;;5.70;2.83;;;0.60;96.80;;;;;;4162006;28;20270;-67
2023/03/29 07:35:31;;;;;;;7.00;3.07;;;0.60;96.30;;;;;;4161609;28;20688;-62
2023/03/29 07:37:34;;;;;;;4.57;2.17;;;0.60;96.30;;;;;;4160386;28;20286;-63
2023/03/29 07:39:36;;;;;;;3.33;2.53;;;0.60;95.80;;;;;;4161670;28;20743;-64
2023/03/29 07:41:37;;;;;;;8.10;2.73;;;0.90;95.90;;;;;;4161894;28;20259;-70
2023/03/29 07:43:38;;;;;;;4.27;2.40;;;1.20;95.90;;;;;;4161613;28;20930;-63
2023/03/29 07:45:41;;;;;;;4.07;2.97;;;1.50;95.60;;;;;;4161692;28;20754;-62
2023/03/29 07:47:43;;;;;;;5.73;2.87;;;1.70;95.00;;;;;;4161580;28;20321;-69
2023/03/29 07:49:44;;;;;;;5.30;2.90;;;1.80;94.60;;;;;;4160709;28;20274;-64
2023/03/29 07:51:46;;;;;;;5.03;3.10;;;1.90;94.80;;;;;;4160658;28;20982;-63
2023/03/29 07:53:48;;;;;;;6.30;2.73;;;2.10;94.70;;;;;;4161646;28;20291;-69
2023/03/29 07:55:51;;;;;;;4.93;2.70;;;2.10;93.90;;;;;;4160775;28;20321;-68
2023/03/29 07:57:52;;;;;;;6.70;2.90;;;2.10;94.00;;;;;;4161347;28;20678;-63
2023/03/29 07:59:54;;;;;;;4.27;2.60;;;1.90;93.20;;;;;;4161581;28;20324;-63
2023/03/29 08:01:55;;;;;;;5.83;2.10;;;1.70;93.20;;;;;;4159316;28;20313;-62
2023/03/29 08:03:57;;;;;;;6.07;3.07;;;1.50;93.40;;;;;;4161377;28;20792;-65
2023/03/29 08:06:01;;;;;;;7.43;5.10;;;1.60;93.70;;;;;;4160692;28;20313;-64
2023/03/29 08:08:03;;;;;;;13.00;8.17;;;1.80;93.50;;;;;;4161102;28;20348;-64
2023/03/29 08:10:06;;;;;;;3.67;2.63;;;2.00;93.40;;;;;;4161054;28;20259;-64
2023/03/29 08:12:08;;;;;;;5.10;1.90;;;2.00;93.30;;;;;;4161418;28;20773;-64
2023/03/29 08:14:09;;;;;;;4.57;2.47;;;1.90;93.30;;;;;;4160637;28;20657;-63
2023/03/29 08:16:10;;;;;;;4.77;1.80;;;1.90;93.00;;;;;;4161015;28;20352;-63
2023/03/29 08:18:11;;;;;;;2.93;1.97;;;1.60;92.20;;;;;;4160853;28;20697;-64
2023/03/29 08:20:15;;;;;;;4.03;2.27;;;1.40;92.70;;;;;;4160953;28;20267;-67
2023/03/29 08:22:16;;;;;;;6.53;2.43;;;1.40;93.40;;;;;;4160598;28;20349;-65
2023/03/29 08:24:17;;;;;;;7.57;2.57;;;1.50;93.50;;;;;;4160772;28;20317;-65
2023/03/29 08:26:19;;;;;;;3.43;2.60;;;1.60;93.10;;;;;;4160931;28;20596;-63
2023/03/29 08:28:20;;;;;;;6.37;2.33;;;1.70;93.00;;;;;;4160464;28;20320;-67
2023/03/29 08:30:21;;;;;;;5.30;2.60;;;1.70;92.80;;;;;;4160909;28;20278;-69
2023/03/29 08:32:22;;;;;;;3.93;2.40;;;1.60;92.70;;;;;;4160755;28;20340;-65
2023/03/29 08:34:23;;;;;;;3.70;2.17;;;1.60;92.00;;;;;;4161077;28;20329;-74
2023/03/29 08:36:25;;;;;;;5.67;2.60;;;1.70;92.10;;;;;;4160930;28;20275;-67
2023/03/29 08:38:26;;;;;;;3.87;2.37;;;1.60;91.50;;;;;;4160968;28;20263;-74
2023/03/29 08:40:29;;;;;;;4.00;2.30;;;1.70;92.10;;;;;;4160701;28;20259;-65
2023/03/29 08:42:40;;;;;;;3.77;2.00;;;1.70;92.10;;;;;;4160667;28;20250;-66
2023/03/29 08:44:50;;;;;;;7.00;3.00;;;1.60;91.80;;;;;;4160735;28;20317;-64
2023/03/29 08:47:24;;;;;;;5.00;2.90;;;1.60;91.80;;;;;;4160862;28;20263;-64
2023/03/29 08:49:26;;;;;;;7.13;2.83;;;1.60;92.00;;;;;;4155789;28;20285;-69
2023/03/29 08:51:31;;;;;;;5.40;2.50;;;1.60;92.20;;;;;;4160450;28;21019;-66
2023/03/29 08:53:37;;;;;;;9.13;2.33;;;1.70;92.20;;;;;;4159722;28;21154;-67
2023/03/29 08:55:44;;;;;;;4.93;2.00;;;1.70;92.00;;;;;;4160304;28;20285;-66
2023/03/29 08:57:49;;;;;;;4.80;2.00;;;1.80;91.40;;;;;;4159972;28;20701;-66
2023/03/29 08:59:52;;;;;;;4.23;1.90;;;1.90;90.40;;;;;;4160486;28;21461;-63
2023/03/29 09:01:56;;;;;;;4.47;1.93;;;1.80;90.50;;;;;;4159687;28;20678;-64
2023/03/29 09:04:16;;;;;;;4.07;2.27;;;1.90;90.90;;;;;;4160379;28;20313;-63
2023/03/29 09:06:19;;;;;;;2.83;1.77;;;2.00;90.60;;;;;;4159903;28;20262;-74
2023/03/29 09:08:22;;;;;;;9.87;2.40;;;2.10;90.70;;;;;;4160180;28;20295;-64
2023/03/29 09:10:38;;;;;;;6.77;2.23;;;2.30;90.40;;;;;;4160199;28;20352;-65
2023/03/29 09:13:11;;;;;;;5.30;1.97;;;2.50;90.50;;;;;;4159856;28;20697;-63
2023/03/29 09:15:18;;;;;;;3.63;1.87;;;2.50;90.20;;;;;;4159544;28;20337;-67
2023/03/29 09:17:31;;;;;;;3.70;1.97;;;2.30;90.00;;;;;;4159862;28;20283;-67
2023/03/29 09:19:53;;;;;;;4.73;1.80;;;2.40;89.60;;;;;;4160000;28;20270;-71
2023/03/29 09:22:15;;;;;;;5.67;1.93;;;2.50;88.80;;;;;;4160158;28;20738;-68
2023/03/29 09:24:49;;;;;;;7.90;1.53;;;2.70;88.30;;;;;;4159753;28;20348;-64
2023/03/29 09:26:59;;;;;;;2.93;1.90;;;2.80;87.20;;;;;;4158102;28;20310;-72
2023/03/29 09:29:34;;;;;;;3.90;2.77;;;2.80;85.30;;;;;;4159614;28;20267;-73
2023/03/29 09:31:41;;;;;;;4.93;2.40;;;2.70;86.90;;;;;;4160073;28;20669;-68
2023/03/29 09:33:49;;;;;;;13.80;2.23;;;2.90;86.60;;;;;;4158665;28;20828;-63
2023/03/29 09:36:09;;;;;;;4.13;2.03;;;2.80;87.40;;;;;;4159986;28;20262;-63
2023/03/29 09:38:12;;;;;;;1.87;1.50;;;2.90;86.80;;;;;;4160350;28;20298;-65
2023/03/29 09:40:21;;;;;;;5.20;2.10;;;3.00;87.40;;;;;;4159507;28;20748;-73
2023/03/29 09:42:26;;;;;;;4.23;2.10;;;3.10;86.40;;;;;;4159910;28;20267;-63
2023/03/29 09:44:51;;;;;;;3.23;1.90;;;3.20;86.90;;;;;;4159547;28;20345;-74
2023/03/29 09:47:00;;;;;;;1.83;1.63;;;3.20;86.80;;;;;;4159381;28;20329;-63
2023/03/29 09:49:05;;;;;;;4.80;2.10;;;3.20;87.40;;;;;;4159797;28;20321;-64
2023/03/29 09:51:07;;;;;;;3.13;2.07;;;3.50;87.90;;;;;;4159363;28;20271;-63
2023/03/29 09:53:09;;;;;;;3.70;1.93;;;3.50;87.00;;;;;;4159916;28;20270;-63
2023/03/29 09:55:15;;;;;;;4.03;2.17;;;3.40;86.60;;;;;;4159775;28;20282;-63
2023/03/29 09:57:18;;;;;;;3.27;2.20;;;3.30;86.70;;;;;;4159629;28;20340;-70
2023/03/29 09:59:19;;;;;;;5.80;1.90;;;3.30;86.70;;;;;;4159753;28;20669;-63
2023/03/29 10:01:20;;;;;;;4.53;2.13;;;3.20;85.90;;;;;;4159655;28;20313;-64
2023/03/29 10:03:27;;;;;;;9.07;2.43;;;3.20;84.20;;;;;;4159247;28;20348;-64
2023/03/29 10:05:31;;;;;;;5.53;2.07;;;3.30;86.20;;;;;;4158035;28;20274;-70
2023/03/29 10:07:43;;;;;;;3.07;1.50;;;3.20;84.90;;;;;;4159343;28;20332;-63
2023/03/29 10:09:45;;;;;;;5.60;2.17;;;3.20;85.30;;;;;;4159368;28;20344;-63
2023/03/29 10:11:52;;;;;;;3.27;1.90;;;3.30;85.30;;;;;;4159403;28;20316;-63
2023/03/29 10:13:56;;;;;;;4.87;1.83;;;3.30;85.50;;;;;;4160999;28;20275;-63
2023/03/29 10:16:06;;;;;;;2.67;1.40;;;3.20;83.70;;;;;;4162540;28;20274;-66
2023/03/29 10:18:12;;;;;;;2.90;1.67;;;3.20;81.90;;;;;;4163459;28;20287;-63
2023/03/29 10:20:18;;;;;;;2.73;1.83;;;3.20;82.80;;;;;;4162453;28;20033;-64
2023/03/29 10:22:26;;;;;;;2.90;1.70;;;3.30;82.70;;;;;;4162940;28;20262;-64
2023/03/29 10:24:27;;;;;;;4.27;1.80;;;3.40;83.40;;;;;;4162481;28;20321;-68
2023/03/29 10:26:31;;;;;;;4.37;1.70;;;3.60;83.40;;;;;;4162616;28;20259;-64
2023/03/29 10:28:35;;;;;;;3.23;2.23;;;3.60;83.40;;;;;;4162144;28;20317;-64
2023/03/29 10:30:38;;;;;;;3.33;1.63;;;3.70;84.00;;;;;;4162465;28;20259;-73
2023/03/29 10:32:40;;;;;;;3.90;2.10;;;3.70;82.10;;;;;;4162679;28;20320;-68
2023/03/29 10:34:42;;;;;;;3.77;2.00;;;3.60;82.50;;;;;;4162262;28;20250;-69
2023/03/29 10:36:52;;;;;;;3.50;1.40;;;3.60;82.60;;;;;;4162971;28;20312;-65
2023/03/29 10:38:57;;;;;;;5.70;2.35;;;3.70;82.50;;;;;;4162668;28;20694;-63
2023/03/29 10:41:10;;;;;;;4.23;1.83;;;3.60;82.90;;;;;;4162707;28;20060;-63
2023/03/29 10:43:45;;;;;;;5.53;1.60;;;3.40;83.10;;;;;;4162715;28;20263;-64
2023/03/29 10:45:48;;;;;;;2.90;1.20;;;3.30;81.90;;;;;;4158082;28;20316;-62
2023/03/29 10:47:50;;;;;;;4.37;1.67;;;3.30;82.10;;;;;;4162363;28;20800;-63
2023/03/29 10:49:54;;;;;;;4.67;1.50;;;3.30;80.50;;;;;;4162462;28;20254;-64
2023/03/29 10:51:56;;;;;;;2.80;1.70;;;3.30;80.90;;;;;;4162415;28;20730;-64
2023/03/29 10:53:58;;;;;;;3.00;1.80;;;3.20;82.20;;;;;;4160732;28;20329;-64